Alovera, Spain
Current Conditions -  °F | °C
As of 6:00 PM on Monday 24 Nov 2014 (Local Time) from LETO Reporting Station
Few Clouds Few Clouds  
Wind Chill: 61°   Ceiling: Unl
Heat Index: 61°   Visibility: 6mi
Dew Point: 54°   Wind: 3mph
Humidity: 77%   Direction: 290°WNW
Pressure: 30.03"   Gusts: NA
Location:  40.59°N, 3.25°W
Report Text: LETO 241700Z 29003KT 9999 FEW078 16/12 Q1017 NOSIG
Loading
Personal Weather Stations






























Interactive Weather Map New forecast layout! Learn more

10-Day Weather Forecast

Advertisements
Track Severe Weather on mobile